Stewart, Virginia
Current Conditions -  °F | °C
As of 5:54 AM on Wednesday 22 Oct 2014 (Local Time) from KRIC Reporting Station
Light Rain Light Rain  
Wind Chill: 53°   Ceiling: 900
Heat Index: 53°   Visibility: 7mi
Dew Point: 50°   Wind: 10mph
Humidity: 89%   Direction: 310°NW
Pressure: 29.87"   Gusts: NA
Location:  37.5541°N, 77.4914°W
Report Text: KRIC 220954Z 31009KT 7SM -RA BKN009 OVC025 12/10 A2987 RMK AO2 SLP119 P0000 T01170100
Loading
Personal Weather Stations






























Interactive Weather Map
Tropical Storm Tracking
New forecast layout! Learn more

10-Day Weather Forecast

Advertisements
Track Severe Weather on mobile